sensor_id;sensor_type;location;lat;lon;timestamp;P1;durP1;ratioP1;P2;durP2;ratioP2
15077;SDS011;7638;49.760;8.646;2023-06-22T00:01:53;6.87;;;5.03;;
15077;SDS011;7638;49.760;8.646;2023-06-22T00:04:19;6.00;;;4.40;;
15077;SDS011;7638;49.760;8.646;2023-06-22T00:06:45;5.00;;;4.50;;
15077;SDS011;7638;49.760;8.646;2023-06-22T00:09:11;5.97;;;4.70;;
15077;SDS011;7638;49.760;8.646;2023-06-22T00:11:37;5.90;;;4.97;;
15077;SDS011;7638;49.760;8.646;2023-06-22T00:14:03;6.17;;;4.67;;
15077;SDS011;7638;49.760;8.646;2023-06-22T00:16:31;8.10;;;4.83;;
15077;SDS011;7638;49.760;8.646;2023-06-22T00:18:57;5.83;;;4.63;;
15077;SDS011;7638;49.760;8.646;2023-06-22T00:21:25;5.33;;;4.67;;
15077;SDS011;7638;49.760;8.646;2023-06-22T00:23:51;8.87;;;4.83;;
15077;SDS011;7638;49.760;8.646;2023-06-22T00:26:17;5.17;;;4.47;;
15077;SDS011;7638;49.760;8.646;2023-06-22T00:28:43;7.27;;;5.03;;
15077;SDS011;7638;49.760;8.646;2023-06-22T00:31:13;12.20;;;5.60;;
15077;SDS011;7638;49.760;8.646;2023-06-22T00:33:39;7.53;;;5.77;;
15077;SDS011;7638;49.760;8.646;2023-06-22T00:36:05;7.00;;;5.63;;
15077;SDS011;7638;49.760;8.646;2023-06-22T00:38:41;7.73;;;5.70;;
15077;SDS011;7638;49.760;8.646;2023-06-22T00:41:07;8.43;;;6.23;;
15077;SDS011;7638;49.760;8.646;2023-06-22T00:43:36;7.67;;;6.03;;
15077;SDS011;7638;49.760;8.646;2023-06-22T00:46:07;7.50;;;6.47;;
15077;SDS011;7638;49.760;8.646;2023-06-22T00:48:33;8.60;;;6.20;;
15077;SDS011;7638;49.760;8.646;2023-06-22T00:51:02;14.13;;;6.30;;
15077;SDS011;7638;49.760;8.646;2023-06-22T00:53:28;7.93;;;6.47;;
15077;SDS011;7638;49.760;8.646;2023-06-22T00:55:54;8.20;;;6.50;;
15077;SDS011;7638;49.760;8.646;2023-06-22T00:58:21;7.77;;;6.83;;
15077;SDS011;7638;49.760;8.646;2023-06-22T01:00:47;6.97;;;5.70;;
15077;SDS011;7638;49.760;8.646;2023-06-22T01:03:13;8.87;;;6.30;;
15077;SDS011;7638;49.760;8.646;2023-06-22T01:05:41;8.60;;;6.53;;
15077;SDS011;7638;49.760;8.646;2023-06-22T01:10:48;12.63;;;5.90;;
15077;SDS011;7638;49.760;8.646;2023-06-22T01:15:57;11.23;;;6.20;;
15077;SDS011;7638;49.760;8.646;2023-06-22T01:18:25;8.03;;;5.80;;
15077;SDS011;7638;49.760;8.646;2023-06-22T01:20:54;10.27;;;5.77;;
15077;SDS011;7638;49.760;8.646;2023-06-22T01:26:06;7.27;;;6.53;;
15077;SDS011;7638;49.760;8.646;2023-06-22T01:28:47;9.50;;;6.10;;
15077;SDS011;7638;49.760;8.646;2023-06-22T01:31:16;8.63;;;5.40;;
15077;SDS011;7638;49.760;8.646;2023-06-22T01:33:43;7.50;;;6.17;;
15077;SDS011;7638;49.760;8.646;2023-06-22T01:36:09;7.40;;;6.50;;
15077;SDS011;7638;49.760;8.646;2023-06-22T01:38:39;10.80;;;7.03;;
15077;SDS011;7638;49.760;8.646;2023-06-22T01:41:05;8.50;;;6.03;;
15077;SDS011;7638;49.760;8.646;2023-06-22T01:43:31;11.10;;;6.73;;
15077;SDS011;7638;49.760;8.646;2023-06-22T01:45:59;9.27;;;7.00;;
15077;SDS011;7638;49.760;8.646;2023-06-22T01:48:25;10.53;;;7.07;;
15077;SDS011;7638;49.760;8.646;2023-06-22T01:50:52;7.93;;;6.47;;
15077;SDS011;7638;49.760;8.646;2023-06-22T01:53:25;18.83;;;6.90;;
15077;SDS011;7638;49.760;8.646;2023-06-22T01:55:54;7.63;;;5.63;;
15077;SDS011;7638;49.760;8.646;2023-06-22T01:58:23;7.00;;;5.60;;
15077;SDS011;7638;49.760;8.646;2023-06-22T02:01:10;8.07;;;6.27;;
15077;SDS011;7638;49.760;8.646;2023-06-22T02:04:02;10.27;;;6.53;;
15077;SDS011;7638;49.760;8.646;2023-06-22T02:06:27;8.77;;;6.20;;
15077;SDS011;7638;49.760;8.646;2023-06-22T02:08:55;8.43;;;5.87;;
15077;SDS011;7638;49.760;8.646;2023-06-22T02:11:22;8.30;;;6.57;;
15077;SDS011;7638;49.760;8.646;2023-06-22T02:13:49;7.87;;;6.40;;
15077;SDS011;7638;49.760;8.646;2023-06-22T02:16:16;9.80;;;7.47;;
15077;SDS011;7638;49.760;8.646;2023-06-22T02:18:49;8.27;;;6.47;;
15077;SDS011;7638;49.760;8.646;2023-06-22T02:21:16;10.43;;;7.43;;
15077;SDS011;7638;49.760;8.646;2023-06-22T02:23:42;9.17;;;6.57;;
15077;SDS011;7638;49.760;8.646;2023-06-22T02:26:08;9.03;;;6.67;;
15077;SDS011;7638;49.760;8.646;2023-06-22T02:28:35;9.13;;;6.80;;
15077;SDS011;7638;49.760;8.646;2023-06-22T02:31:01;10.33;;;6.87;;
15077;SDS011;7638;49.760;8.646;2023-06-22T02:33:27;9.87;;;6.23;;
15077;SDS011;7638;49.760;8.646;2023-06-22T02:35:53;8.10;;;6.73;;
15077;SDS011;7638;49.760;8.646;2023-06-22T02:38:19;6.57;;;5.87;;
15077;SDS011;7638;49.760;8.646;2023-06-22T02:40:45;10.50;;;6.93;;
15077;SDS011;7638;49.760;8.646;2023-06-22T02:43:11;7.60;;;5.97;;
15077;SDS011;7638;49.760;8.646;2023-06-22T02:45:37;8.47;;;6.37;;
15077;SDS011;7638;49.760;8.646;2023-06-22T02:48:03;7.37;;;5.53;;
15077;SDS011;7638;49.760;8.646;2023-06-22T02:50:29;9.27;;;6.20;;
15077;SDS011;7638;49.760;8.646;2023-06-22T02:52:56;7.67;;;6.00;;
15077;SDS011;7638;49.760;8.646;2023-06-22T02:55:24;7.93;;;5.83;;
15077;SDS011;7638;49.760;8.646;2023-06-22T02:57:50;8.80;;;6.57;;
15077;SDS011;7638;49.760;8.646;2023-06-22T03:00:17;8.17;;;6.43;;
15077;SDS011;7638;49.760;8.646;2023-06-22T03:02:44;9.10;;;6.00;;
15077;SDS011;7638;49.760;8.646;2023-06-22T03:05:10;6.53;;;5.83;;
15077;SDS011;7638;49.760;8.646;2023-06-22T03:07:41;7.47;;;5.63;;
15077;SDS011;7638;49.760;8.646;2023-06-22T03:10:08;8.67;;;6.17;;
15077;SDS011;7638;49.760;8.646;2023-06-22T03:12:34;6.63;;;5.63;;
15077;SDS011;7638;49.760;8.646;2023-06-22T03:15:00;6.57;;;5.33;;
15077;SDS011;7638;49.760;8.646;2023-06-22T03:17:26;9.53;;;6.47;;
15077;SDS011;7638;49.760;8.646;2023-06-22T03:19:52;9.57;;;6.23;;
15077;SDS011;7638;49.760;8.646;2023-06-22T03:22:19;12.00;;;6.37;;
15077;SDS011;7638;49.760;8.646;2023-06-22T03:24:45;7.43;;;6.00;;
15077;SDS011;7638;49.760;8.646;2023-06-22T03:27:11;6.40;;;5.40;;
15077;SDS011;7638;49.760;8.646;2023-06-22T03:29:38;7.23;;;6.00;;
15077;SDS011;7638;49.760;8.646;2023-06-22T03:32:04;9.13;;;6.53;;
15077;SDS011;7638;49.760;8.646;2023-06-22T03:34:31;7.50;;;6.00;;
15077;SDS011;7638;49.760;8.646;2023-06-22T03:36:58;10.37;;;6.20;;
15077;SDS011;7638;49.760;8.646;2023-06-22T03:39:24;5.97;;;5.37;;
15077;SDS011;7638;49.760;8.646;2023-06-22T03:41:50;9.10;;;6.03;;
15077;SDS011;7638;49.760;8.646;2023-06-22T03:44:16;8.83;;;5.40;;
15077;SDS011;7638;49.760;8.646;2023-06-22T03:46:42;6.67;;;5.43;;
15077;SDS011;7638;49.760;8.646;2023-06-22T03:49:08;9.63;;;6.17;;
15077;SDS011;7638;49.760;8.646;2023-06-22T03:51:34;7.17;;;5.67;;
15077;SDS011;7638;49.760;8.646;2023-06-22T03:54:00;6.80;;;6.07;;
15077;SDS011;7638;49.760;8.646;2023-06-22T03:56:26;7.40;;;5.77;;
15077;SDS011;7638;49.760;8.646;2023-06-22T03:58:52;7.93;;;5.30;;
15077;SDS011;7638;49.760;8.646;2023-06-22T04:01:22;6.70;;;5.97;;
15077;SDS011;7638;49.760;8.646;2023-06-22T04:03:48;8.27;;;5.87;;
15077;SDS011;7638;49.760;8.646;2023-06-22T04:06:14;9.03;;;5.80;;
15077;SDS011;7638;49.760;8.646;2023-06-22T04:08:40;9.50;;;5.73;;
15077;SDS011;7638;49.760;8.646;2023-06-22T04:11:07;8.47;;;6.63;;
15077;SDS011;7638;49.760;8.646;2023-06-22T04:13:33;9.83;;;6.27;;
15077;SDS011;7638;49.760;8.646;2023-06-22T04:15:59;7.80;;;5.50;;
15077;SDS011;7638;49.760;8.646;2023-06-22T04:18:26;7.43;;;6.20;;
15077;SDS011;7638;49.760;8.646;2023-06-22T04:20:52;7.10;;;6.10;;
15077;SDS011;7638;49.760;8.646;2023-06-22T04:23:18;7.87;;;5.90;;
15077;SDS011;7638;49.760;8.646;2023-06-22T04:25:44;7.93;;;5.73;;
15077;SDS011;7638;49.760;8.646;2023-06-22T04:28:10;7.97;;;6.03;;
15077;SDS011;7638;49.760;8.646;2023-06-22T04:30:37;7.73;;;5.77;;
15077;SDS011;7638;49.760;8.646;2023-06-22T04:33:12;6.70;;;5.50;;
15077;SDS011;7638;49.760;8.646;2023-06-22T04:35:38;9.27;;;5.20;;
15077;SDS011;7638;49.760;8.646;2023-06-22T04:38:06;7.70;;;6.00;;
15077;SDS011;7638;49.760;8.646;2023-06-22T04:40:32;7.20;;;5.60;;
15077;SDS011;7638;49.760;8.646;2023-06-22T04:42:58;9.27;;;5.97;;
15077;SDS011;7638;49.760;8.646;2023-06-22T04:45:27;8.53;;;5.90;;
15077;SDS011;7638;49.760;8.646;2023-06-22T04:47:54;9.10;;;5.90;;
15077;SDS011;7638;49.760;8.646;2023-06-22T04:50:20;9.47;;;5.87;;
15077;SDS011;7638;49.760;8.646;2023-06-22T04:52:47;7.20;;;5.90;;
15077;SDS011;7638;49.760;8.646;2023-06-22T04:55:13;9.17;;;6.03;;
15077;SDS011;7638;49.760;8.646;2023-06-22T04:57:45;6.37;;;5.00;;
15077;SDS011;7638;49.760;8.646;2023-06-22T05:00:17;7.07;;;5.83;;
15077;SDS011;7638;49.760;8.646;2023-06-22T05:02:47;8.60;;;6.20;;
15077;SDS011;7638;49.760;8.646;2023-06-22T05:05:13;6.93;;;6.20;;
15077;SDS011;7638;49.760;8.646;2023-06-22T05:07:41;7.67;;;6.50;;
15077;SDS011;7638;49.760;8.646;2023-06-22T05:10:08;6.40;;;5.23;;
15077;SDS011;7638;49.760;8.646;2023-06-22T05:12:35;8.30;;;6.30;;
15077;SDS011;7638;49.760;8.646;2023-06-22T05:15:01;7.33;;;5.77;;
15077;SDS011;7638;49.760;8.646;2023-06-22T05:17:27;13.10;;;6.67;;
15077;SDS011;7638;49.760;8.646;2023-06-22T05:19:53;10.30;;;6.50;;
15077;SDS011;7638;49.760;8.646;2023-06-22T05:22:20;7.07;;;5.57;;
15077;SDS011;7638;49.760;8.646;2023-06-22T05:24:46;7.20;;;6.07;;
15077;SDS011;7638;49.760;8.646;2023-06-22T05:27:13;7.27;;;5.77;;
15077;SDS011;7638;49.760;8.646;2023-06-22T05:29:39;8.87;;;5.63;;
15077;SDS011;7638;49.760;8.646;2023-06-22T05:32:05;6.77;;;5.50;;
15077;SDS011;7638;49.760;8.646;2023-06-22T05:34:32;6.57;;;5.40;;
15077;SDS011;7638;49.760;8.646;2023-06-22T05:36:58;6.40;;;5.80;;
15077;SDS011;7638;49.760;8.646;2023-06-22T05:39:24;6.73;;;6.00;;
15077;SDS011;7638;49.760;8.646;2023-06-22T05:41:51;5.80;;;5.20;;
15077;SDS011;7638;49.760;8.646;2023-06-22T05:44:17;7.87;;;6.27;;
15077;SDS011;7638;49.760;8.646;2023-06-22T05:46:47;6.97;;;5.53;;
15077;SDS011;7638;49.760;8.646;2023-06-22T05:49:15;9.67;;;5.37;;
15077;SDS011;7638;49.760;8.646;2023-06-22T05:51:42;8.97;;;5.80;;
15077;SDS011;7638;49.760;8.646;2023-06-22T05:54:08;6.30;;;5.30;;
15077;SDS011;7638;49.760;8.646;2023-06-22T05:56:37;10.30;;;6.63;;
15077;SDS011;7638;49.760;8.646;2023-06-22T05:59:03;7.53;;;6.23;;
15077;SDS011;7638;49.760;8.646;2023-06-22T06:01:29;7.63;;;5.90;;
15077;SDS011;7638;49.760;8.646;2023-06-22T06:03:59;7.40;;;5.87;;
15077;SDS011;7638;49.760;8.646;2023-06-22T06:06:25;7.73;;;6.47;;
15077;SDS011;7638;49.760;8.646;2023-06-22T06:08:53;7.27;;;5.83;;
15077;SDS011;7638;49.760;8.646;2023-06-22T06:11:20;8.97;;;6.23;;
15077;SDS011;7638;49.760;8.646;2023-06-22T06:13:45;8.10;;;6.03;;
15077;SDS011;7638;49.760;8.646;2023-06-22T06:16:12;6.83;;;5.83;;
15077;SDS011;7638;49.760;8.646;2023-06-22T06:18:38;7.33;;;6.07;;
15077;SDS011;7638;49.760;8.646;2023-06-22T06:21:04;8.97;;;6.90;;
15077;SDS011;7638;49.760;8.646;2023-06-22T06:23:30;9.87;;;6.57;;
15077;SDS011;7638;49.760;8.646;2023-06-22T06:25:56;6.83;;;6.07;;
15077;SDS011;7638;49.760;8.646;2023-06-22T06:28:22;7.53;;;6.63;;
15077;SDS011;7638;49.760;8.646;2023-06-22T06:30:51;8.73;;;6.10;;
15077;SDS011;7638;49.760;8.646;2023-06-22T06:33:24;14.30;;;6.80;;
15077;SDS011;7638;49.760;8.646;2023-06-22T06:35:50;8.30;;;6.07;;
15077;SDS011;7638;49.760;8.646;2023-06-22T06:38:16;9.67;;;6.43;;
15077;SDS011;7638;49.760;8.646;2023-06-22T06:40:42;7.90;;;6.30;;
15077;SDS011;7638;49.760;8.646;2023-06-22T06:43:12;12.40;;;7.10;;
15077;SDS011;7638;49.760;8.646;2023-06-22T06:45:39;9.97;;;6.63;;
15077;SDS011;7638;49.760;8.646;2023-06-22T06:48:06;8.37;;;6.77;;
15077;SDS011;7638;49.760;8.646;2023-06-22T06:50:32;11.03;;;6.77;;
15077;SDS011;7638;49.760;8.646;2023-06-22T06:52:58;8.50;;;6.60;;
15077;SDS011;7638;49.760;8.646;2023-06-22T06:55:24;8.93;;;7.00;;
15077;SDS011;7638;49.760;8.646;2023-06-22T06:57:50;8.70;;;6.37;;
15077;SDS011;7638;49.760;8.646;2023-06-22T07:00:17;7.60;;;6.47;;
15077;SDS011;7638;49.760;8.646;2023-06-22T07:02:44;11.23;;;7.43;;
15077;SDS011;7638;49.760;8.646;2023-06-22T07:05:11;8.13;;;6.43;;
15077;SDS011;7638;49.760;8.646;2023-06-22T07:07:37;9.83;;;7.20;;
15077;SDS011;7638;49.760;8.646;2023-06-22T07:10:04;12.23;;;6.53;;
15077;SDS011;7638;49.760;8.646;2023-06-22T07:12:30;7.97;;;7.17;;
15077;SDS011;7638;49.760;8.646;2023-06-22T07:15:03;8.70;;;6.70;;
15077;SDS011;7638;49.760;8.646;2023-06-22T07:17:30;9.17;;;6.73;;
15077;SDS011;7638;49.760;8.646;2023-06-22T07:19:56;8.80;;;6.97;;
15077;SDS011;7638;49.760;8.646;2023-06-22T07:22:22;9.27;;;7.10;;
15077;SDS011;7638;49.760;8.646;2023-06-22T07:24:48;8.07;;;7.10;;
15077;SDS011;7638;49.760;8.646;2023-06-22T07:27:14;8.03;;;7.17;;
15077;SDS011;7638;49.760;8.646;2023-06-22T07:29:44;8.80;;;7.40;;
15077;SDS011;7638;49.760;8.646;2023-06-22T07:32:13;9.47;;;7.40;;
15077;SDS011;7638;49.760;8.646;2023-06-22T07:34:39;10.90;;;7.63;;
15077;SDS011;7638;49.760;8.646;2023-06-22T07:37:06;7.13;;;6.43;;
15077;SDS011;7638;49.760;8.646;2023-06-22T07:39:32;7.37;;;6.57;;
15077;SDS011;7638;49.760;8.646;2023-06-22T07:41:58;12.60;;;6.87;;
15077;SDS011;7638;49.760;8.646;2023-06-22T07:44:24;9.53;;;6.40;;
15077;SDS011;7638;49.760;8.646;2023-06-22T07:46:50;8.07;;;6.57;;
15077;SDS011;7638;49.760;8.646;2023-06-22T07:49:16;7.70;;;6.90;;
15077;SDS011;7638;49.760;8.646;2023-06-22T07:51:42;11.60;;;7.57;;
15077;SDS011;7638;49.760;8.646;2023-06-22T07:54:09;8.60;;;7.30;;
15077;SDS011;7638;49.760;8.646;2023-06-22T07:56:36;9.30;;;7.57;;
15077;SDS011;7638;49.760;8.646;2023-06-22T07:59:02;10.03;;;7.10;;
15077;SDS011;7638;49.760;8.646;2023-06-22T08:01:29;9.67;;;7.53;;
15077;SDS011;7638;49.760;8.646;2023-06-22T08:03:55;10.70;;;6.73;;
15077;SDS011;7638;49.760;8.646;2023-06-22T08:06:21;11.73;;;7.17;;
15077;SDS011;7638;49.760;8.646;2023-06-22T08:08:47;8.37;;;7.10;;
15077;SDS011;7638;49.760;8.646;2023-06-22T08:11:14;11.03;;;7.20;;
15077;SDS011;7638;49.760;8.646;2023-06-22T08:13:40;7.60;;;6.80;;
15077;SDS011;7638;49.760;8.646;2023-06-22T08:16:05;8.37;;;7.20;;
15077;SDS011;7638;49.760;8.646;2023-06-22T08:18:32;8.97;;;7.37;;
15077;SDS011;7638;49.760;8.646;2023-06-22T08:20:58;10.97;;;7.53;;
15077;SDS011;7638;49.760;8.646;2023-06-22T08:23:24;10.47;;;7.53;;
15077;SDS011;7638;49.760;8.646;2023-06-22T08:25:50;8.27;;;6.80;;
15077;SDS011;7638;49.760;8.646;2023-06-22T08:28:16;8.30;;;7.00;;
15077;SDS011;7638;49.760;8.646;2023-06-22T08:30:42;12.93;;;7.13;;
15077;SDS011;7638;49.760;8.646;2023-06-22T08:33:12;7.93;;;7.03;;
15077;SDS011;7638;49.760;8.646;2023-06-22T08:35:38;8.20;;;7.10;;
15077;SDS011;7638;49.760;8.646;2023-06-22T08:38:04;7.87;;;6.60;;
15077;SDS011;7638;49.760;8.646;2023-06-22T08:40:30;8.93;;;7.70;;
15077;SDS011;7638;49.760;8.646;2023-06-22T08:42:56;8.23;;;6.93;;
15077;SDS011;7638;49.760;8.646;2023-06-22T08:45:22;10.77;;;6.63;;
15077;SDS011;7638;49.760;8.646;2023-06-22T08:47:48;14.67;;;7.00;;
15077;SDS011;7638;49.760;8.646;2023-06-22T08:50:14;7.87;;;6.93;;
15077;SDS011;7638;49.760;8.646;2023-06-22T08:52:40;10.77;;;6.27;;
15077;SDS011;7638;49.760;8.646;2023-06-22T08:55:06;9.17;;;6.63;;
15077;SDS011;7638;49.760;8.646;2023-06-22T08:57:33;12.40;;;7.37;;
15077;SDS011;7638;49.760;8.646;2023-06-22T09:00:02;13.13;;;7.50;;
15077;SDS011;7638;49.760;8.646;2023-06-22T09:02:33;9.73;;;6.97;;
15077;SDS011;7638;49.760;8.646;2023-06-22T09:04:59;7.63;;;6.80;;
15077;SDS011;7638;49.760;8.646;2023-06-22T09:07:25;8.07;;;6.67;;
15077;SDS011;7638;49.760;8.646;2023-06-22T09:09:51;7.00;;;6.30;;
15077;SDS011;7638;49.760;8.646;2023-06-22T09:12:18;8.10;;;6.73;;
15077;SDS011;7638;49.760;8.646;2023-06-22T09:14:45;9.90;;;7.03;;
15077;SDS011;7638;49.760;8.646;2023-06-22T09:17:12;6.97;;;6.27;;
15077;SDS011;7638;49.760;8.646;2023-06-22T09:19:38;11.83;;;6.90;;
15077;SDS011;7638;49.760;8.646;2023-06-22T09:22:04;7.23;;;6.50;;
15077;SDS011;7638;49.760;8.646;2023-06-22T09:24:33;9.23;;;6.90;;
15077;SDS011;7638;49.760;8.646;2023-06-22T09:26:59;7.97;;;6.80;;
15077;SDS011;7638;49.760;8.646;2023-06-22T09:29:25;8.90;;;6.23;;
15077;SDS011;7638;49.760;8.646;2023-06-22T09:32:04;8.40;;;7.07;;
15077;SDS011;7638;49.760;8.646;2023-06-22T09:34:30;11.63;;;7.07;;
15077;SDS011;7638;49.760;8.646;2023-06-22T09:36:56;7.67;;;6.87;;
15077;SDS011;7638;49.760;8.646;2023-06-22T09:39:25;7.53;;;6.83;;
15077;SDS011;7638;49.760;8.646;2023-06-22T09:41:51;7.50;;;5.97;;
15077;SDS011;7638;49.760;8.646;2023-06-22T09:44:17;6.93;;;6.23;;
15077;SDS011;7638;49.760;8.646;2023-06-22T09:46:43;10.83;;;6.60;;
15077;SDS011;7638;49.760;8.646;2023-06-22T09:49:09;8.23;;;6.80;;
15077;SDS011;7638;49.760;8.646;2023-06-22T09:51:35;8.37;;;6.27;;
15077;SDS011;7638;49.760;8.646;2023-06-22T09:54:01;7.57;;;6.47;;
15077;SDS011;7638;49.760;8.646;2023-06-22T09:56:27;7.23;;;6.53;;
15077;SDS011;7638;49.760;8.646;2023-06-22T09:58:55;11.93;;;7.33;;
15077;SDS011;7638;49.760;8.646;2023-06-22T10:01:21;9.00;;;6.90;;
15077;SDS011;7638;49.760;8.646;2023-06-22T10:03:47;7.03;;;6.33;;
15077;SDS011;7638;49.760;8.646;2023-06-22T10:06:14;7.50;;;6.80;;
15077;SDS011;7638;49.760;8.646;2023-06-22T10:08:40;7.53;;;6.70;;
15077;SDS011;7638;49.760;8.646;2023-06-22T10:11:06;9.07;;;6.43;;
15077;SDS011;7638;49.760;8.646;2023-06-22T10:13:32;12.53;;;6.50;;
15077;SDS011;7638;49.760;8.646;2023-06-22T10:15:58;7.13;;;6.03;;
15077;SDS011;7638;49.760;8.646;2023-06-22T10:18:24;7.97;;;5.40;;
15077;SDS011;7638;49.760;8.646;2023-06-22T10:20:50;8.03;;;6.17;;
15077;SDS011;7638;49.760;8.646;2023-06-22T10:23:17;8.97;;;6.33;;
15077;SDS011;7638;49.760;8.646;2023-06-22T10:25:43;7.23;;;6.53;;
15077;SDS011;7638;49.760;8.646;2023-06-22T10:28:09;10.10;;;6.63;;
15077;SDS011;7638;49.760;8.646;2023-06-22T10:30:35;7.57;;;6.10;;
15077;SDS011;7638;49.760;8.646;2023-06-22T10:33:04;6.97;;;5.43;;
15077;SDS011;7638;49.760;8.646;2023-06-22T10:35:30;7.70;;;6.40;;
15077;SDS011;7638;49.760;8.646;2023-06-22T10:37:56;9.57;;;6.57;;
15077;SDS011;7638;49.760;8.646;2023-06-22T10:40:22;11.87;;;6.57;;
15077;SDS011;7638;49.760;8.646;2023-06-22T10:42:48;7.37;;;6.50;;
15077;SDS011;7638;49.760;8.646;2023-06-22T10:45:15;11.97;;;6.13;;
15077;SDS011;7638;49.760;8.646;2023-06-22T10:47:41;8.43;;;6.47;;
15077;SDS011;7638;49.760;8.646;2023-06-22T10:50:07;10.13;;;6.97;;
15077;SDS011;7638;49.760;8.646;2023-06-22T10:52:33;10.03;;;6.90;;
15077;SDS011;7638;49.760;8.646;2023-06-22T10:54:59;7.33;;;6.30;;
15077;SDS011;7638;49.760;8.646;2023-06-22T10:57:25;8.50;;;6.90;;
15077;SDS011;7638;49.760;8.646;2023-06-22T10:59:51;8.93;;;6.67;;
15077;SDS011;7638;49.760;8.646;2023-06-22T11:02:21;8.83;;;6.87;;
15077;SDS011;7638;49.760;8.646;2023-06-22T11:04:47;7.43;;;6.53;;
15077;SDS011;7638;49.760;8.646;2023-06-22T11:07:13;8.90;;;6.80;;
15077;SDS011;7638;49.760;8.646;2023-06-22T11:09:39;9.93;;;6.20;;
15077;SDS011;7638;49.760;8.646;2023-06-22T11:12:05;9.97;;;6.33;;
15077;SDS011;7638;49.760;8.646;2023-06-22T11:14:31;9.90;;;6.80;;
15077;SDS011;7638;49.760;8.646;2023-06-22T11:16:58;8.50;;;5.97;;
15077;SDS011;7638;49.760;8.646;2023-06-22T11:19:24;9.10;;;5.63;;
15077;SDS011;7638;49.760;8.646;2023-06-22T11:21:50;10.73;;;6.60;;
15077;SDS011;7638;49.760;8.646;2023-06-22T11:24:16;10.50;;;5.70;;
15077;SDS011;7638;49.760;8.646;2023-06-22T11:26:42;9.83;;;5.43;;
15077;SDS011;7638;49.760;8.646;2023-06-22T11:29:09;8.70;;;5.63;;
15077;SDS011;7638;49.760;8.646;2023-06-22T11:31:41;8.00;;;5.23;;
15077;SDS011;7638;49.760;8.646;2023-06-22T11:34:08;10.27;;;6.13;;
15077;SDS011;7638;49.760;8.646;2023-06-22T11:36:34;13.17;;;6.17;;
15077;SDS011;7638;49.760;8.646;2023-06-22T11:39:00;7.33;;;5.87;;
15077;SDS011;7638;49.760;8.646;2023-06-22T11:41:26;7.30;;;6.20;;
15077;SDS011;7638;49.760;8.646;2023-06-22T11:43:52;11.37;;;5.90;;
15077;SDS011;7638;49.760;8.646;2023-06-22T11:46:18;10.00;;;5.73;;
15077;SDS011;7638;49.760;8.646;2023-06-22T11:48:44;8.70;;;5.50;;
15077;SDS011;7638;49.760;8.646;2023-06-22T11:51:10;10.37;;;6.00;;
15077;SDS011;7638;49.760;8.646;2023-06-22T11:53:36;7.03;;;5.73;;
15077;SDS011;7638;49.760;8.646;2023-06-22T11:56:02;8.97;;;5.83;;
15077;SDS011;7638;49.760;8.646;2023-06-22T11:58:28;7.50;;;6.03;;
15077;SDS011;7638;49.760;8.646;2023-06-22T12:00:54;7.10;;;5.30;;
15077;SDS011;7638;49.760;8.646;2023-06-22T12:03:20;10.33;;;6.23;;
15077;SDS011;7638;49.760;8.646;2023-06-22T12:05:47;6.87;;;4.90;;
15077;SDS011;7638;49.760;8.646;2023-06-22T12:08:13;8.07;;;4.90;;
15077;SDS011;7638;49.760;8.646;2023-06-22T12:10:39;7.93;;;5.60;;
15077;SDS011;7638;49.760;8.646;2023-06-22T12:13:05;10.93;;;4.73;;
15077;SDS011;7638;49.760;8.646;2023-06-22T12:15:31;6.03;;;4.70;;
15077;SDS011;7638;49.760;8.646;2023-06-22T12:17:57;9.50;;;5.97;;
15077;SDS011;7638;49.760;8.646;2023-06-22T12:20:23;9.83;;;5.77;;
15077;SDS011;7638;49.760;8.646;2023-06-22T12:22:49;6.30;;;5.03;;
15077;SDS011;7638;49.760;8.646;2023-06-22T12:25:19;10.33;;;5.70;;
15077;SDS011;7638;49.760;8.646;2023-06-22T12:27:45;9.97;;;5.27;;
15077;SDS011;7638;49.760;8.646;2023-06-22T12:30:11;11.50;;;4.80;;
15077;SDS011;7638;49.760;8.646;2023-06-22T12:32:40;13.80;;;5.53;;
15077;SDS011;7638;49.760;8.646;2023-06-22T12:35:06;8.17;;;5.23;;
15077;SDS011;7638;49.760;8.646;2023-06-22T12:37:37;11.37;;;5.37;;
15077;SDS011;7638;49.760;8.646;2023-06-22T12:40:03;10.63;;;5.20;;
15077;SDS011;7638;49.760;8.646;2023-06-22T12:42:29;8.37;;;4.60;;
15077;SDS011;7638;49.760;8.646;2023-06-22T12:44:55;10.20;;;5.30;;
15077;SDS011;7638;49.760;8.646;2023-06-22T12:47:21;11.17;;;5.07;;
15077;SDS011;7638;49.760;8.646;2023-06-22T12:49:47;7.07;;;4.50;;
15077;SDS011;7638;49.760;8.646;2023-06-22T12:52:13;9.07;;;4.67;;
15077;SDS011;7638;49.760;8.646;2023-06-22T12:54:39;9.63;;;4.70;;
15077;SDS011;7638;49.760;8.646;2023-06-22T12:57:05;6.73;;;4.23;;
15077;SDS011;7638;49.760;8.646;2023-06-22T12:59:31;6.50;;;4.50;;
15077;SDS011;7638;49.760;8.646;2023-06-22T13:01:57;9.23;;;4.80;;
15077;SDS011;7638;49.760;8.646;2023-06-22T13:04:23;9.10;;;4.83;;
15077;SDS011;7638;49.760;8.646;2023-06-22T13:06:49;14.83;;;4.93;;
15077;SDS011;7638;49.760;8.646;2023-06-22T13:09:15;8.23;;;5.23;;
15077;SDS011;7638;49.760;8.646;2023-06-22T13:11:42;9.17;;;4.40;;
15077;SDS011;7638;49.760;8.646;2023-06-22T13:14:08;5.90;;;4.60;;
15077;SDS011;7638;49.760;8.646;2023-06-22T13:16:34;10.40;;;5.53;;
15077;SDS011;7638;49.760;8.646;2023-06-22T13:19:00;9.17;;;4.80;;
15077;SDS011;7638;49.760;8.646;2023-06-22T13:21:26;10.97;;;4.43;;
15077;SDS011;7638;49.760;8.646;2023-06-22T13:23:52;12.80;;;4.70;;
15077;SDS011;7638;49.760;8.646;2023-06-22T13:26:18;5.63;;;3.90;;
15077;SDS011;7638;49.760;8.646;2023-06-22T13:28:44;7.40;;;4.27;;
15077;SDS011;7638;49.760;8.646;2023-06-22T13:31:16;6.73;;;4.30;;
15077;SDS011;7638;49.760;8.646;2023-06-22T13:33:42;11.63;;;4.67;;
15077;SDS011;7638;49.760;8.646;2023-06-22T13:36:10;11.40;;;4.43;;
15077;SDS011;7638;49.760;8.646;2023-06-22T13:38:36;9.80;;;4.93;;
15077;SDS011;7638;49.760;8.646;2023-06-22T13:41:05;11.27;;;4.57;;
15077;SDS011;7638;49.760;8.646;2023-06-22T13:43:31;6.40;;;4.93;;
15077;SDS011;7638;49.760;8.646;2023-06-22T13:45:57;9.40;;;5.03;;
15077;SDS011;7638;49.760;8.646;2023-06-22T13:48:24;10.97;;;4.87;;
15077;SDS011;7638;49.760;8.646;2023-06-22T13:50:51;9.57;;;3.67;;
15077;SDS011;7638;49.760;8.646;2023-06-22T13:53:17;8.70;;;4.23;;
15077;SDS011;7638;49.760;8.646;2023-06-22T13:55:43;11.13;;;4.97;;
15077;SDS011;7638;49.760;8.646;2023-06-22T13:58:09;7.37;;;3.33;;
15077;SDS011;7638;49.760;8.646;2023-06-22T14:00:35;10.10;;;4.63;;
15077;SDS011;7638;49.760;8.646;2023-06-22T14:03:01;8.40;;;4.60;;
15077;SDS011;7638;49.760;8.646;2023-06-22T14:05:27;10.00;;;3.93;;
15077;SDS011;7638;49.760;8.646;2023-06-22T14:07:53;7.27;;;3.83;;
15077;SDS011;7638;49.760;8.646;2023-06-22T14:10:19;8.20;;;3.87;;
15077;SDS011;7638;49.760;8.646;2023-06-22T14:12:45;11.93;;;4.43;;
15077;SDS011;7638;49.760;8.646;2023-06-22T14:15:11;7.73;;;4.50;;
15077;SDS011;7638;49.760;8.646;2023-06-22T14:17:37;9.37;;;4.20;;
15077;SDS011;7638;49.760;8.646;2023-06-22T14:20:03;13.17;;;4.20;;
15077;SDS011;7638;49.760;8.646;2023-06-22T14:22:30;7.07;;;3.90;;
15077;SDS011;7638;49.760;8.646;2023-06-22T14:24:56;5.83;;;3.77;;
15077;SDS011;7638;49.760;8.646;2023-06-22T14:27:23;12.47;;;4.10;;
15077;SDS011;7638;49.760;8.646;2023-06-22T14:29:49;10.37;;;4.07;;
15077;SDS011;7638;49.760;8.646;2023-06-22T14:32:15;9.40;;;4.10;;
15077;SDS011;7638;49.760;8.646;2023-06-22T14:34:41;7.90;;;4.27;;
15077;SDS011;7638;49.760;8.646;2023-06-22T14:37:08;10.53;;;4.17;;
15077;SDS011;7638;49.760;8.646;2023-06-22T14:39:35;9.70;;;4.03;;
15077;SDS011;7638;49.760;8.646;2023-06-22T14:42:01;7.77;;;4.83;;
15077;SDS011;7638;49.760;8.646;2023-06-22T14:44:28;11.47;;;4.30;;
15077;SDS011;7638;49.760;8.646;2023-06-22T14:46:55;9.97;;;4.33;;
15077;SDS011;7638;49.760;8.646;2023-06-22T14:49:21;14.10;;;4.17;;
15077;SDS011;7638;49.760;8.646;2023-06-22T14:51:47;8.17;;;3.60;;
15077;SDS011;7638;49.760;8.646;2023-06-22T14:54:13;11.23;;;4.53;;
15077;SDS011;7638;49.760;8.646;2023-06-22T14:56:39;9.40;;;4.13;;
15077;SDS011;7638;49.760;8.646;2023-06-22T14:59:05;10.73;;;4.33;;
15077;SDS011;7638;49.760;8.646;2023-06-22T15:01:31;7.80;;;4.13;;
15077;SDS011;7638;49.760;8.646;2023-06-22T15:03:57;8.97;;;4.27;;